createdAt,value
2018-09-05T00:00:17.934Z,15.05
2018-09-05T00:01:17.979Z,15.08
2018-09-05T00:02:18.021Z,15.08
2018-09-05T00:03:18.122Z,14.95
2018-09-05T00:04:18.124Z,14.98
2018-09-05T00:05:18.172Z,15.03
2018-09-05T00:06:18.216Z,14.98
2018-09-05T00:07:18.273Z,14.93
2018-09-05T00:08:18.339Z,14.94
2018-09-05T00:09:18.394Z,14.91
2018-09-05T00:10:18.415Z,15.02
2018-09-05T00:11:18.466Z,15.02
2018-09-05T00:12:18.518Z,15.01
2018-09-05T00:13:18.570Z,14.99
2018-09-05T00:14:18.689Z,14.95
2018-09-05T00:15:18.664Z,14.94
2018-09-05T00:16:18.717Z,14.98
2018-09-05T00:17:18.761Z,14.93
2018-09-05T00:18:18.815Z,14.95
2018-09-05T00:19:18.883Z,14.91
2018-09-05T00:20:18.920Z,14.90
2018-09-05T00:21:18.961Z,14.90
2018-09-05T00:22:19.008Z,14.78
2018-09-05T00:23:19.067Z,14.84
2018-09-05T00:24:19.152Z,14.86
2018-09-05T00:25:19.183Z,14.80
2018-09-05T00:26:19.205Z,14.71
2018-09-05T00:27:19.264Z,14.74
2018-09-05T00:28:20.103Z,14.69
2018-09-05T00:29:19.357Z,14.78
2018-09-05T00:30:20.132Z,14.75
2018-09-05T00:31:19.454Z,14.62
2018-09-05T00:32:19.513Z,14.68
2018-09-05T00:33:19.553Z,14.65
2018-09-05T00:34:19.603Z,14.67
2018-09-05T00:35:19.670Z,14.71
2018-09-05T00:36:19.714Z,14.68
2018-09-05T00:37:19.760Z,14.65
2018-09-05T00:38:20.606Z,14.62
2018-09-05T00:39:19.844Z,14.61
2018-09-05T00:40:20.629Z,14.61
2018-09-05T00:41:19.946Z,14.64
2018-09-05T00:42:20.001Z,14.56
2018-09-05T00:43:20.050Z,14.64
2018-09-05T00:44:20.096Z,14.65
2018-09-05T00:45:20.166Z,14.60
2018-09-05T00:46:20.192Z,14.61
2018-09-05T00:47:20.244Z,14.64
2018-09-05T00:48:20.298Z,14.64
2018-09-05T00:49:20.345Z,14.57
2018-09-05T00:50:20.407Z,14.57
2018-09-05T00:51:20.439Z,14.64
2018-09-05T00:52:20.485Z,14.65
2018-09-05T00:53:20.544Z,14.60
2018-09-05T00:54:21.106Z,14.65
2018-09-05T00:55:20.654Z,14.61
2018-09-05T00:56:20.709Z,14.57
2018-09-05T00:57:20.737Z,14.54
2018-09-05T00:58:20.798Z,14.57
2018-09-05T00:59:20.840Z,14.50
2018-09-05T01:00:20.883Z,14.44
2018-09-05T01:01:20.952Z,14.39
2018-09-05T01:02:20.979Z,14.43
2018-09-05T01:03:21.036Z,14.50
2018-09-05T01:04:21.079Z,14.35
2018-09-05T01:05:22.110Z,14.39
2018-09-05T01:06:21.199Z,14.31
2018-09-05T01:07:21.227Z,14.39
2018-09-05T01:08:21.285Z,14.44
2018-09-05T01:09:21.324Z,14.35
2018-09-05T01:10:21.372Z,14.38
2018-09-05T01:11:22.111Z,14.39
2018-09-05T01:12:21.470Z,14.38
2018-09-05T01:13:22.110Z,14.39
2018-09-05T01:14:21.578Z,14.38
2018-09-05T01:15:21.617Z,14.39
2018-09-05T01:16:21.711Z,14.34
2018-09-05T01:17:21.714Z,14.38
2018-09-05T01:18:21.770Z,14.37
2018-09-05T01:19:21.814Z,14.39
2018-09-05T01:20:21.869Z,14.34
2018-09-05T01:21:21.938Z,14.31
2018-09-05T01:22:21.972Z,14.29
2018-09-05T01:23:22.040Z,14.28
2018-09-05T01:24:22.619Z,14.29
2018-09-05T01:25:22.110Z,14.27
2018-09-05T01:26:22.159Z,14.28
2018-09-05T01:27:22.210Z,14.28
2018-09-05T01:28:22.281Z,14.24
2018-09-05T01:29:22.315Z,14.27
2018-09-05T01:30:22.360Z,14.27
2018-09-05T01:31:22.412Z,14.24
2018-09-05T01:32:22.480Z,14.21
2018-09-05T01:33:22.532Z,14.24
2018-09-05T01:34:22.585Z,14.21
2018-09-05T01:35:22.610Z,14.17
2018-09-05T01:36:22.655Z,14.17
2018-09-05T01:37:22.725Z,14.21
2018-09-05T01:38:22.744Z,14.17
2018-09-05T01:39:22.824Z,14.09
2018-09-05T01:40:22.845Z,14.13
2018-09-05T01:41:22.903Z,14.16
2018-09-05T01:42:22.950Z,14.16
2018-09-05T01:43:23.017Z,14.12
2018-09-05T01:44:23.042Z,14.19
2018-09-05T01:45:23.099Z,14.07
2018-09-05T01:46:23.145Z,14.07
2018-09-05T01:47:23.196Z,14.10
2018-09-05T01:48:23.301Z,14.07
2018-09-05T01:49:24.150Z,14.01
2018-09-05T01:50:23.362Z,13.99
2018-09-05T01:51:23.387Z,14.02
2018-09-05T01:52:23.435Z,13.96
2018-09-05T01:53:23.488Z,13.99
2018-09-05T01:54:23.552Z,14.13
2018-09-05T01:55:23.639Z,14.10
2018-09-05T01:56:23.657Z,14.10
2018-09-05T01:57:23.679Z,13.98
2018-09-05T01:58:23.728Z,14.01
2018-09-05T01:59:23.821Z,13.99
2018-09-05T02:00:23.835Z,13.96
2018-09-05T02:01:24.620Z,13.95
2018-09-05T02:02:23.940Z,14.10
2018-09-05T02:03:23.980Z,14.01
2018-09-05T02:04:24.049Z,14.07
2018-09-05T02:05:24.070Z,14.09
2018-09-05T02:06:24.129Z,14.06
2018-09-05T02:07:24.166Z,14.10
2018-09-05T02:08:24.236Z,14.10
2018-09-05T02:09:24.286Z,14.07
2018-09-05T02:10:24.347Z,13.99
2018-09-05T02:11:24.364Z,14.13
2018-09-05T02:12:24.419Z,14.12
2018-09-05T02:13:24.459Z,14.07
2018-09-05T02:14:24.516Z,14.02
2018-09-05T02:15:24.589Z,14.02
2018-09-05T02:16:24.612Z,14.01
2018-09-05T02:17:24.660Z,14.04
2018-09-05T02:18:24.713Z,14.04
2018-09-05T02:19:24.758Z,13.96
2018-09-05T02:20:24.832Z,14.04
2018-09-05T02:21:24.856Z,13.95
2018-09-05T02:22:24.907Z,14.04
2018-09-05T02:23:24.955Z,14.02
2018-09-05T02:24:25.001Z,14.02
2018-09-05T02:25:25.065Z,14.04
2018-09-05T02:26:25.098Z,14.01
2018-09-05T02:27:25.167Z,13.99
2018-09-05T02:28:25.232Z,13.98
2018-09-05T02:29:25.241Z,13.96
2018-09-05T02:30:25.294Z,13.96
2018-09-05T02:31:25.363Z,13.99
2018-09-05T02:32:25.399Z,13.99
2018-09-05T02:33:25.440Z,14.02
2018-09-05T02:34:25.493Z,13.96
2018-09-05T02:35:25.538Z,13.99
2018-09-05T02:36:25.619Z,14.01
2018-09-05T02:37:25.637Z,13.96
2018-09-05T02:38:25.970Z,13.96
2018-09-05T02:39:25.733Z,13.98
2018-09-05T02:40:25.792Z,13.96
2018-09-05T02:41:25.833Z,13.95
2018-09-05T02:42:25.922Z,13.98
2018-09-05T02:43:26.487Z,13.99
2018-09-05T02:44:26.013Z,13.96
2018-09-05T02:45:26.027Z,13.95
2018-09-05T02:46:26.076Z,13.96
2018-09-05T02:47:26.127Z,13.89
2018-09-05T02:48:26.174Z,13.88
2018-09-05T02:49:26.251Z,13.89
2018-09-05T02:50:26.284Z,13.89
2018-09-05T02:51:26.411Z,13.81
2018-09-05T02:52:26.388Z,13.83
2018-09-05T02:53:26.417Z,13.81
2018-09-05T02:54:26.493Z,13.84
2018-09-05T02:55:26.515Z,13.77
2018-09-05T02:56:27.128Z,13.87
2018-09-05T02:57:26.637Z,13.83
2018-09-05T02:58:26.753Z,13.77
2018-09-05T02:59:26.721Z,13.84
2018-09-05T03:00:26.763Z,13.84
2018-09-05T03:01:27.646Z,13.81
2018-09-05T03:02:26.880Z,13.83
2018-09-05T03:03:26.907Z,13.84
2018-09-05T03:04:26.956Z,13.80
2018-09-05T03:05:27.032Z,13.83
2018-09-05T03:06:27.057Z,13.89
2018-09-05T03:07:27.647Z,13.81
2018-09-05T03:08:27.149Z,13.80
2018-09-05T03:09:27.216Z,13.81
2018-09-05T03:10:27.248Z,13.81
2018-09-05T03:11:27.299Z,13.79
2018-09-05T03:12:27.427Z,13.74
2018-09-05T03:13:27.406Z,13.71
2018-09-05T03:14:27.463Z,13.70
2018-09-05T03:15:27.492Z,13.67
2018-09-05T03:16:27.545Z,13.79
2018-09-05T03:17:27.589Z,13.71
2018-09-05T03:18:28.130Z,13.73
2018-09-05T03:19:27.709Z,13.69
2018-09-05T03:20:27.736Z,13.59
2018-09-05T03:21:28.455Z,13.67
2018-09-05T03:22:27.852Z,13.59
2018-09-05T03:23:27.904Z,13.63
2018-09-05T03:24:27.954Z,13.55
2018-09-05T03:25:28.012Z,13.52
2018-09-05T03:26:28.037Z,13.62
2018-09-05T03:27:28.083Z,13.59
2018-09-05T03:28:28.127Z,13.52
2018-09-05T03:29:29.132Z,13.58
2018-09-05T03:30:28.632Z,13.56
2018-09-05T03:31:28.283Z,13.52
2018-09-05T03:32:28.453Z,13.54
2018-09-05T03:33:28.376Z,13.59
2018-09-05T03:34:28.460Z,13.52
2018-09-05T03:35:28.497Z,13.58
2018-09-05T03:36:28.521Z,13.49
2018-09-05T03:37:28.567Z,13.49
2018-09-05T03:38:28.632Z,13.51
2018-09-05T03:39:28.674Z,13.54
2018-09-05T03:40:28.748Z,13.43
2018-09-05T03:41:28.766Z,13.47
2018-09-05T03:42:28.814Z,13.46
2018-09-05T03:43:29.634Z,13.49
2018-09-05T03:44:28.913Z,13.38
2018-09-05T03:45:28.980Z,13.41
2018-09-05T03:46:29.027Z,13.38
2018-09-05T03:47:29.057Z,13.43
2018-09-05T03:48:29.108Z,13.44
2018-09-05T03:49:29.171Z,13.40
2018-09-05T03:50:29.203Z,13.37
2018-09-05T03:51:29.285Z,13.37
2018-09-05T03:52:29.298Z,13.32
2018-09-05T03:53:29.347Z,13.18
2018-09-05T03:54:29.395Z,13.20
2018-09-05T03:55:29.447Z,13.09
2018-09-05T03:56:30.188Z,13.09
2018-09-05T03:57:29.542Z,13.11
2018-09-05T03:58:29.591Z,13.14
2018-09-05T03:59:29.639Z,13.03
2018-09-05T04:00:29.689Z,13.07
2018-09-05T04:01:29.886Z,13.18
2018-09-05T04:02:29.814Z,13.21
2018-09-05T04:03:29.836Z,13.22
2018-09-05T04:04:29.883Z,13.15
2018-09-05T04:05:29.937Z,13.22
2018-09-05T04:06:29.995Z,13.09
2018-09-05T04:07:30.054Z,13.09
2018-09-05T04:08:31.138Z,13.14
2018-09-05T04:09:30.128Z,13.02
2018-09-05T04:10:30.178Z,13.04
2018-09-05T04:11:30.226Z,13.07
2018-09-05T04:12:30.298Z,13.03
2018-09-05T04:13:30.334Z,13.06
2018-09-05T04:14:31.139Z,13.00
2018-09-05T04:15:30.416Z,13.02
2018-09-05T04:16:30.481Z,13.00
2018-09-05T04:17:30.538Z,12.89
2018-09-05T04:18:30.564Z,13.03
2018-09-05T04:19:30.616Z,13.00
2018-09-05T04:20:30.670Z,12.99
2018-09-05T04:21:30.711Z,12.95
2018-09-05T04:22:30.783Z,13.03
2018-09-05T04:23:30.805Z,12.96
2018-09-05T04:24:30.854Z,12.95
2018-09-05T04:25:30.902Z,12.93
2018-09-05T04:26:30.957Z,12.95
2018-09-05T04:27:31.030Z,12.93
2018-09-05T04:28:31.053Z,12.99
2018-09-05T04:29:31.134Z,12.97
2018-09-05T04:30:31.149Z,12.96
2018-09-05T04:31:31.202Z,13.04
2018-09-05T04:32:31.243Z,13.04
2018-09-05T04:33:31.329Z,12.99
2018-09-05T04:34:31.347Z,12.99
2018-09-05T04:35:31.396Z,13.04
2018-09-05T04:36:31.455Z,12.97
2018-09-05T04:37:31.491Z,13.03
2018-09-05T04:38:31.554Z,12.99
2018-09-05T04:39:31.589Z,12.97
2018-09-05T04:40:33.182Z,13.00
2018-09-05T04:41:31.689Z,12.95
2018-09-05T04:42:31.736Z,12.96
2018-09-05T04:43:31.800Z,12.99
2018-09-05T04:44:31.834Z,13.00
2018-09-05T04:45:31.891Z,12.99
2018-09-05T04:46:31.920Z,12.89
2018-09-05T04:47:32.010Z,13.00
2018-09-05T04:48:32.054Z,12.99
2018-09-05T04:49:32.072Z,13.06
2018-09-05T04:50:32.122Z,13.06
2018-09-05T04:51:32.644Z,13.02
2018-09-05T04:52:32.222Z,12.92
2018-09-05T04:53:32.288Z,12.96
2018-09-05T04:54:32.316Z,13.03
2018-09-05T04:55:32.366Z,12.97
2018-09-05T04:56:32.407Z,12.96
2018-09-05T04:57:32.457Z,13.03
2018-09-05T04:58:32.553Z,12.96
2018-09-05T04:59:32.597Z,13.00
2018-09-05T05:00:32.599Z,13.06
2018-09-05T05:01:32.648Z,13.02
2018-09-05T05:02:32.697Z,13.03
2018-09-05T05:03:32.767Z,12.93
2018-09-05T05:04:33.669Z,12.95
2018-09-05T05:05:32.860Z,12.95
2018-09-05T05:06:32.916Z,13.00
2018-09-05T05:07:32.944Z,12.95
2018-09-05T05:08:33.008Z,13.04
2018-09-05T05:09:33.060Z,12.99
2018-09-05T05:10:33.087Z,12.96
2018-09-05T05:11:33.134Z,13.03
2018-09-05T05:12:33.228Z,12.99
2018-09-05T05:13:33.285Z,13.06
2018-09-05T05:14:33.305Z,12.95
2018-09-05T05:15:33.359Z,13.04
2018-09-05T05:16:33.378Z,13.02
2018-09-05T05:17:33.437Z,13.03
2018-09-05T05:18:33.476Z,13.09
2018-09-05T05:19:33.531Z,13.14
2018-09-05T05:20:33.642Z,13.09
2018-09-05T05:21:33.622Z,13.06
2018-09-05T05:22:33.671Z,13.17
2018-09-05T05:23:33.730Z,13.14
2018-09-05T05:24:33.774Z,13.20
2018-09-05T05:25:33.836Z,13.11
2018-09-05T05:26:33.864Z,13.17
2018-09-05T05:27:33.913Z,13.20
2018-09-05T05:28:33.959Z,13.20
2018-09-05T05:29:34.019Z,13.25
2018-09-05T05:30:34.089Z,13.21
2018-09-05T05:31:34.112Z,13.36
2018-09-05T05:32:34.239Z,13.29
2018-09-05T05:33:34.202Z,13.32
2018-09-05T05:34:34.254Z,13.30
2018-09-05T05:35:34.321Z,13.40
2018-09-05T05:36:35.151Z,13.38
2018-09-05T05:37:34.421Z,13.38
2018-09-05T05:38:35.171Z,13.46
2018-09-05T05:39:34.502Z,13.49
2018-09-05T05:40:34.544Z,13.46
2018-09-05T05:41:34.614Z,13.52
2018-09-05T05:42:34.642Z,13.55
2018-09-05T05:43:34.715Z,13.55
2018-09-05T05:44:34.749Z,13.61
2018-09-05T05:45:34.792Z,13.59
2018-09-05T05:46:34.896Z,13.74
2018-09-05T05:47:35.652Z,13.70
2018-09-05T05:48:34.934Z,13.73
2018-09-05T05:49:35.656Z,13.77
2018-09-05T05:50:36.153Z,13.81
2018-09-05T05:51:35.122Z,13.79
2018-09-05T05:52:35.185Z,13.73
2018-09-05T05:53:35.672Z,13.84
2018-09-05T05:54:35.236Z,13.80
2018-09-05T05:55:35.292Z,13.80
2018-09-05T05:56:35.959Z,13.87
2018-09-05T05:57:35.374Z,13.91
2018-09-05T05:58:35.425Z,13.94
2018-09-05T05:59:35.470Z,13.94
2018-09-05T06:00:36.158Z,13.95
2018-09-05T06:01:35.588Z,14.01
2018-09-05T06:02:35.626Z,13.99
2018-09-05T06:03:35.672Z,13.99
2018-09-05T06:04:35.712Z,14.10
2018-09-05T06:05:35.759Z,14.17
2018-09-05T06:06:35.838Z,14.13
2018-09-05T06:07:35.858Z,14.28
2018-09-05T06:08:35.908Z,14.24
2018-09-05T06:09:35.955Z,14.21
2018-09-05T06:10:36.007Z,14.21
2018-09-05T06:11:36.075Z,14.34
2018-09-05T06:12:36.132Z,14.32
2018-09-05T06:13:36.177Z,14.27
2018-09-05T06:14:36.203Z,14.34
2018-09-05T06:15:36.293Z,14.37
2018-09-05T06:16:36.300Z,14.37
2018-09-05T06:17:36.428Z,14.43
2018-09-05T06:18:36.408Z,14.49
2018-09-05T06:19:36.450Z,14.57
2018-09-05T06:20:36.497Z,14.57
2018-09-05T06:21:36.552Z,14.60
2018-09-05T06:22:36.621Z,14.68
2018-09-05T06:23:36.784Z,14.80
2018-09-05T06:24:36.694Z,14.71
2018-09-05T06:25:36.748Z,14.91
2018-09-05T06:26:36.789Z,14.90
2018-09-05T06:27:36.872Z,15.01
2018-09-05T06:28:36.910Z,15.12
2018-09-05T06:29:36.946Z,15.21
2018-09-05T06:30:37.121Z,15.36
2018-09-05T06:31:37.036Z,15.45
2018-09-05T06:32:37.095Z,15.46
2018-09-05T06:33:37.981Z,15.59
2018-09-05T06:34:38.160Z,15.60
2018-09-05T06:35:37.248Z,15.56
2018-09-05T06:36:37.284Z,15.67
2018-09-05T06:37:38.162Z,15.68
2018-09-05T06:38:37.387Z,15.78
2018-09-05T06:39:37.440Z,15.85
2018-09-05T06:40:37.480Z,15.92
2018-09-05T06:41:38.472Z,15.94
2018-09-05T06:42:37.611Z,16.01
2018-09-05T06:43:37.628Z,16.03
2018-09-05T06:44:37.677Z,16.31
2018-09-05T06:45:37.736Z,16.90
2018-09-05T06:46:37.794Z,17.64
2018-09-05T06:47:37.853Z,18.67
2018-09-05T06:48:37.880Z,19.33
2018-09-05T06:49:37.928Z,20.15
2018-09-05T06:50:37.980Z,20.77
2018-09-05T06:51:38.034Z,21.21
2018-09-05T06:52:38.099Z,21.82
2018-09-05T06:53:38.146Z,22.14
2018-09-05T06:54:38.175Z,22.54
2018-09-05T06:55:38.233Z,22.82
2018-09-05T06:56:38.275Z,23.04
2018-09-05T06:57:38.346Z,23.46
2018-09-05T06:58:38.384Z,23.71
2018-09-05T06:59:38.442Z,24.02
2018-09-05T07:00:38.497Z,24.16
2018-09-05T07:01:39.166Z,24.24
2018-09-05T07:02:38.626Z,24.60
2018-09-05T07:03:38.648Z,25.01
2018-09-05T07:04:38.681Z,25.17
2018-09-05T07:05:38.728Z,24.52
2018-09-05T07:06:38.825Z,24.35
2018-09-05T07:07:38.871Z,23.79
2018-09-05T07:08:38.905Z,23.72
2018-09-05T07:09:38.938Z,23.97
2018-09-05T07:10:38.985Z,24.20
2018-09-05T07:11:39.673Z,24.38
2018-09-05T07:12:39.090Z,24.54
2018-09-05T07:13:39.181Z,24.79
2018-09-05T07:14:39.285Z,25.05
2018-09-05T07:15:39.246Z,25.35
2018-09-05T07:16:39.296Z,25.82
2018-09-05T07:17:40.238Z,25.94
2018-09-05T07:18:39.426Z,26.12
2018-09-05T07:19:39.565Z,26.36
2018-09-05T07:20:39.515Z,26.59
2018-09-05T07:21:39.568Z,26.74
2018-09-05T07:22:39.606Z,26.74
2018-09-05T07:23:39.659Z,26.18
2018-09-05T07:24:39.733Z,26.36
2018-09-05T07:25:39.760Z,25.93
2018-09-05T07:26:40.706Z,26.17
2018-09-05T07:27:39.895Z,26.27
2018-09-05T07:28:39.919Z,25.68
2018-09-05T07:29:39.999Z,25.07
2018-09-05T07:30:40.267Z,24.27
2018-09-05T07:31:40.078Z,24.38
2018-09-05T07:32:40.133Z,24.34
2018-09-05T07:33:40.250Z,24.97
2018-09-05T07:34:40.235Z,25.39
2018-09-05T07:35:40.386Z,25.02
2018-09-05T07:36:40.342Z,24.88
2018-09-05T07:37:40.394Z,24.87
2018-09-05T07:38:40.445Z,25.16
2018-09-05T07:39:40.501Z,25.28
2018-09-05T07:40:40.631Z,25.25
2018-09-05T07:41:40.609Z,24.82
2018-09-05T07:42:40.657Z,24.91
2018-09-05T07:43:40.759Z,25.38
2018-09-05T07:44:40.762Z,25.82
2018-09-05T07:45:40.841Z,26.09
2018-09-05T07:46:40.872Z,26.32
2018-09-05T07:47:40.974Z,26.31
2018-09-05T07:48:40.974Z,26.31
2018-09-05T07:49:41.043Z,26.55
2018-09-05T07:50:41.735Z,26.22
2018-09-05T07:51:41.133Z,25.84
2018-09-05T07:52:41.201Z,25.61
2018-09-05T07:53:41.243Z,24.90
2018-09-05T07:54:41.292Z,24.60
2018-09-05T07:55:41.392Z,23.98
2018-09-05T07:56:42.185Z,24.50
2018-09-05T07:57:41.456Z,24.53
2018-09-05T07:58:41.525Z,24.56
2018-09-05T07:59:41.570Z,24.29
2018-09-05T08:00:42.496Z,23.77
2018-09-05T08:01:41.667Z,23.76
2018-09-05T08:02:41.738Z,24.22
2018-09-05T08:03:41.843Z,24.27
2018-09-05T08:04:41.828Z,23.57
2018-09-05T08:05:41.898Z,23.68
2018-09-05T08:06:42.040Z,23.85
2018-09-05T08:07:41.989Z,24.10
2018-09-05T08:08:42.061Z,24.59
2018-09-05T08:09:42.094Z,25.05
2018-09-05T08:10:42.149Z,25.30
2018-09-05T08:11:42.212Z,24.13
2018-09-05T08:12:42.264Z,24.34
2018-09-05T08:13:42.388Z,24.02
2018-09-05T08:14:42.361Z,24.41
2018-09-05T08:15:42.434Z,24.45
2018-09-05T08:16:42.473Z,24.63
2018-09-05T08:17:42.519Z,24.64
2018-09-05T08:18:42.597Z,24.92
2018-09-05T08:19:42.648Z,25.17
2018-09-05T08:20:42.687Z,25.25
2018-09-05T08:21:42.744Z,25.19
2018-09-05T08:22:42.790Z,25.32
2018-09-05T08:23:42.837Z,24.23
2018-09-05T08:24:42.951Z,23.87
2018-09-05T08:25:42.964Z,24.41
2018-09-05T08:26:43.001Z,23.94
2018-09-05T08:27:43.062Z,24.20
2018-09-05T08:28:43.122Z,23.85
2018-09-05T08:29:43.181Z,24.13
2018-09-05T08:30:43.214Z,24.75
2018-09-05T08:31:43.283Z,25.15
2018-09-05T08:32:43.338Z,25.05
2018-09-05T08:33:43.377Z,25.30
2018-09-05T08:34:43.517Z,25.69
2018-09-05T08:35:44.510Z,25.79
2018-09-05T08:36:43.577Z,25.98
2018-09-05T08:37:43.626Z,26.37
2018-09-05T08:38:43.662Z,26.06
2018-09-05T08:39:43.748Z,25.49
2018-09-05T08:40:43.761Z,24.80
2018-09-05T08:41:43.852Z,24.80
2018-09-05T08:42:43.898Z,25.12
2018-09-05T08:43:44.083Z,25.25
2018-09-05T08:44:44.114Z,25.07
2018-09-05T08:45:44.264Z,24.79
2018-09-05T08:46:44.163Z,25.20
2018-09-05T08:47:44.141Z,25.59
2018-09-05T08:48:44.242Z,25.54
2018-09-05T08:49:44.281Z,25.42
2018-09-05T08:50:44.320Z,25.24
2018-09-05T08:51:44.350Z,25.15
2018-09-05T08:52:44.416Z,24.49
2018-09-05T08:53:44.471Z,24.53
2018-09-05T08:54:44.545Z,24.50
2018-09-05T08:55:44.631Z,23.76
2018-09-05T08:56:44.630Z,23.47
2018-09-05T08:57:44.677Z,23.49
2018-09-05T08:58:44.744Z,23.72
2018-09-05T08:59:44.794Z,23.87
2018-09-05T09:00:44.858Z,23.76
2018-09-05T09:01:44.905Z,23.80
2018-09-05T09:02:44.951Z,23.72
2018-09-05T09:03:45.004Z,22.90
2018-09-05T09:04:45.748Z,22.62
2018-09-05T09:05:45.250Z,22.68
2018-09-05T09:06:45.197Z,22.69
2018-09-05T09:07:45.218Z,23.23
2018-09-05T09:08:45.278Z,22.71
2018-09-05T09:09:45.329Z,23.26
2018-09-05T09:10:46.249Z,23.89
2018-09-05T09:11:45.476Z,24.44
2018-09-05T09:12:45.515Z,24.92
2018-09-05T09:13:45.552Z,24.82
2018-09-05T09:14:45.609Z,25.13
2018-09-05T09:15:45.671Z,24.73
2018-09-05T09:16:45.726Z,23.87
2018-09-05T09:17:45.760Z,23.83
2018-09-05T09:18:45.817Z,24.08
2018-09-05T09:19:45.866Z,24.01
2018-09-05T09:20:45.933Z,23.79
2018-09-05T09:21:46.006Z,23.89
2018-09-05T09:22:46.033Z,23.90
2018-09-05T09:23:46.107Z,23.47
2018-09-05T09:24:46.154Z,23.42
2018-09-05T09:25:46.212Z,23.46
2018-09-05T09:26:46.272Z,23.35
2018-09-05T09:27:46.312Z,23.50
2018-09-05T09:28:46.369Z,23.27
2018-09-05T09:29:46.425Z,23.08
2018-09-05T09:30:46.482Z,23.04
2018-09-05T09:31:46.626Z,22.89
2018-09-05T09:32:46.599Z,22.65
2018-09-05T09:33:46.640Z,22.20
2018-09-05T09:34:46.689Z,22.41
2018-09-05T09:35:46.745Z,22.60
2018-09-05T09:36:46.819Z,22.68
2018-09-05T09:37:46.870Z,23.07
2018-09-05T09:38:46.949Z,23.57
2018-09-05T09:39:46.956Z,24.10
2018-09-05T09:40:47.012Z,23.79
2018-09-05T09:41:47.065Z,23.89
2018-09-05T09:42:47.149Z,23.62
2018-09-05T09:43:47.195Z,22.77
2018-09-05T09:44:47.229Z,22.23
2018-09-05T09:45:47.279Z,22.06
2018-09-05T09:46:47.339Z,21.94
2018-09-05T09:47:47.390Z,22.23
2018-09-05T09:48:47.467Z,22.90
2018-09-05T09:49:47.496Z,23.65
2018-09-05T09:50:47.572Z,24.20
2018-09-05T09:51:47.606Z,24.80
2018-09-05T09:52:47.660Z,24.52
2018-09-05T09:53:47.713Z,23.90
2018-09-05T09:54:47.770Z,23.72
2018-09-05T09:55:47.857Z,23.90
2018-09-05T09:56:47.934Z,24.07
2018-09-05T09:57:47.929Z,22.92
2018-09-05T09:58:47.998Z,22.77
2018-09-05T09:59:48.039Z,22.31
2018-09-05T10:00:48.114Z,22.01
2018-09-05T10:01:48.147Z,21.23
2018-09-05T10:02:48.236Z,21.20
2018-09-05T10:03:48.301Z,21.08
2018-09-05T10:04:48.358Z,21.30
2018-09-05T10:05:49.250Z,21.13
2018-09-05T10:06:48.459Z,21.42
2018-09-05T10:07:48.469Z,21.35
2018-09-05T10:08:48.548Z,21.36
2018-09-05T10:09:48.643Z,21.45
2018-09-05T10:10:48.631Z,21.05
2018-09-05T10:11:48.715Z,21.05
2018-09-05T10:12:48.745Z,21.42
2018-09-05T10:13:48.793Z,21.42
2018-09-05T10:14:48.886Z,21.45
2018-09-05T10:15:48.910Z,21.59
2018-09-05T10:16:48.966Z,21.63
2018-09-05T10:17:49.008Z,21.51
2018-09-05T10:18:49.057Z,21.41
2018-09-05T10:19:49.137Z,21.69
2018-09-05T10:20:49.201Z,21.60
2018-09-05T10:21:49.216Z,22.16
2018-09-05T10:22:49.276Z,21.97
2018-09-05T10:23:49.331Z,22.13
2018-09-05T10:24:49.395Z,21.74
2018-09-05T10:25:49.427Z,21.72
2018-09-05T10:26:50.250Z,21.83
2018-09-05T10:27:49.538Z,21.95
2018-09-05T10:28:49.588Z,22.06
2018-09-05T10:29:49.679Z,21.94
2018-09-05T10:30:49.711Z,21.81
2018-09-05T10:31:50.341Z,21.98
2018-09-05T10:32:49.804Z,21.69
2018-09-05T10:33:49.850Z,21.57
2018-09-05T10:34:49.927Z,21.48
2018-09-05T10:35:50.006Z,21.26
2018-09-05T10:36:50.013Z,21.27
2018-09-05T10:37:50.066Z,21.05
2018-09-05T10:38:50.128Z,21.54
2018-09-05T10:39:50.169Z,21.97
2018-09-05T10:40:50.241Z,21.88
2018-09-05T10:41:50.283Z,21.69
2018-09-05T10:42:50.332Z,21.60
2018-09-05T10:43:50.393Z,21.72
2018-09-05T10:44:50.450Z,22.09
2018-09-05T10:45:50.512Z,22.07
2018-09-05T10:46:50.550Z,22.06
2018-09-05T10:47:50.599Z,21.92
2018-09-05T10:48:50.658Z,21.83
2018-09-05T10:49:50.732Z,22.28
2018-09-05T10:50:50.756Z,22.38
2018-09-05T10:51:50.869Z,22.28
2018-09-05T10:52:50.878Z,22.28
2018-09-05T10:53:50.927Z,22.43
2018-09-05T10:54:50.968Z,22.65
2018-09-05T10:55:51.029Z,22.44
2018-09-05T10:56:51.095Z,22.43
2018-09-05T10:57:51.129Z,22.59
2018-09-05T10:58:51.202Z,22.44
2018-09-05T10:59:51.237Z,22.14
2018-09-05T11:00:51.287Z,22.64
2018-09-05T11:01:51.365Z,23.27
2018-09-05T11:02:51.406Z,23.60
2018-09-05T11:03:51.467Z,23.45
2018-09-05T11:04:51.510Z,23.26
2018-09-05T11:05:51.556Z,23.07
2018-09-05T11:06:51.644Z,22.60
2018-09-05T11:07:51.663Z,22.62
2018-09-05T11:08:51.719Z,22.64
2018-09-05T11:09:51.771Z,22.78
2018-09-05T11:10:51.923Z,22.75
2018-09-05T11:11:51.912Z,22.41
2018-09-05T11:12:51.946Z,22.50
2018-09-05T11:13:51.993Z,23.26
2018-09-05T11:14:52.062Z,22.96
2018-09-05T11:15:52.109Z,22.39
2018-09-05T11:16:52.157Z,22.34
2018-09-05T11:17:52.225Z,22.60
2018-09-05T11:18:52.257Z,22.41
2018-09-05T11:19:52.342Z,22.67
2018-09-05T11:20:52.408Z,23.07
2018-09-05T11:21:52.429Z,23.15
2018-09-05T11:22:52.507Z,23.07
2018-09-05T11:23:52.528Z,22.87
2018-09-05T11:24:52.591Z,23.26
2018-09-05T11:25:53.273Z,23.24
2018-09-05T11:26:52.746Z,22.83
2018-09-05T11:27:52.773Z,23.32
2018-09-05T11:28:52.853Z,23.55
2018-09-05T11:29:52.853Z,23.31
2018-09-05T11:30:52.916Z,23.47
2018-09-05T11:31:52.962Z,23.92
2018-09-05T11:32:53.047Z,24.12
2018-09-05T11:33:53.075Z,23.90
2018-09-05T11:34:53.127Z,23.77
2018-09-05T11:35:53.181Z,24.32
2018-09-05T11:36:53.324Z,24.38
2018-09-05T11:37:53.290Z,24.14
2018-09-05T11:38:53.346Z,23.83
2018-09-05T11:39:53.404Z,23.94
2018-09-05T11:40:53.467Z,23.92
2018-09-05T11:41:53.536Z,24.01
2018-09-05T11:42:53.575Z,24.76
2018-09-05T11:43:53.626Z,25.19
2018-09-05T11:44:53.679Z,25.37
2018-09-05T11:45:53.766Z,25.79
2018-09-05T11:46:53.815Z,25.47
2018-09-05T11:47:53.881Z,25.16
2018-09-05T11:48:53.911Z,24.91
2018-09-05T11:49:53.959Z,24.94
2018-09-05T11:50:54.014Z,25.27
2018-09-05T11:51:54.069Z,25.65
2018-09-05T11:52:54.149Z,25.84
2018-09-05T11:53:54.189Z,25.87
2018-09-05T11:54:54.253Z,25.64
2018-09-05T11:55:54.298Z,25.27
2018-09-05T11:56:54.368Z,25.06
2018-09-05T11:57:54.426Z,25.02
2018-09-05T11:58:55.292Z,24.92
2018-09-05T11:59:54.519Z,25.16
2018-09-05T12:00:54.585Z,25.57
2018-09-05T12:01:54.644Z,25.61
2018-09-05T12:02:55.325Z,25.59
2018-09-05T12:03:54.752Z,25.05
2018-09-05T12:04:54.815Z,24.98
2018-09-05T12:05:54.872Z,24.90
2018-09-05T12:06:54.925Z,25.07
2018-09-05T12:07:55.016Z,25.53
2018-09-05T12:08:55.061Z,25.37
2018-09-05T12:09:55.095Z,25.30
2018-09-05T12:10:55.169Z,25.53
2018-09-05T12:11:55.220Z,25.35
2018-09-05T12:12:55.272Z,25.17
2018-09-05T12:13:55.360Z,25.05
2018-09-05T12:14:55.407Z,25.28
2018-09-05T12:15:56.296Z,24.83
2018-09-05T12:16:55.506Z,24.52
2018-09-05T12:17:56.101Z,24.61
2018-09-05T12:18:55.613Z,24.52
2018-09-05T12:19:55.692Z,24.52
2018-09-05T12:20:55.735Z,24.79
2018-09-05T12:21:55.786Z,25.05
2018-09-05T12:22:55.843Z,25.13
2018-09-05T12:23:55.907Z,24.82
2018-09-05T12:24:55.978Z,24.92
2018-09-05T12:25:56.042Z,24.49
2018-09-05T12:26:56.096Z,24.19
2018-09-05T12:27:56.131Z,24.44
2018-09-05T12:28:56.192Z,25.01
2018-09-05T12:29:56.259Z,24.82
2018-09-05T12:30:56.300Z,25.15
2018-09-05T12:31:56.401Z,24.82
2018-09-05T12:32:56.433Z,25.05
2018-09-05T12:33:56.482Z,24.59
2018-09-05T12:34:56.529Z,24.64
2018-09-05T12:35:56.589Z,24.38
2018-09-05T12:36:56.674Z,24.08
2018-09-05T12:37:56.706Z,23.97
2018-09-05T12:38:56.761Z,23.50
2018-09-05T12:39:56.830Z,23.82
2018-09-05T12:40:56.908Z,24.14
2018-09-05T12:41:56.942Z,24.82
2018-09-05T12:42:57.009Z,24.47
2018-09-05T12:43:57.053Z,24.80
2018-09-05T12:44:57.113Z,25.07
2018-09-05T12:45:57.176Z,25.38
2018-09-05T12:46:57.817Z,25.57
2018-09-05T12:47:57.401Z,25.20
2018-09-05T12:48:57.340Z,24.68
2018-09-05T12:49:57.413Z,24.14
2018-09-05T12:50:57.463Z,24.41
2018-09-05T12:51:57.537Z,24.90
2018-09-05T12:52:57.596Z,25.07